Time;durP1;ratioP1;P1;durP2;ratioP2;P2;SDS_P1;SDS_P2;PMS_P1;PMS_P2;Temp;Humidity;BMP_temperature;BMP_pressure;BME280_temperature;BME280_humidity;BME280_pressure;Samples;Min_cycle;Max_cycle;Signal;HPM_P1;HPM_P2
2021/11/12 00:03:37;;;;;;;26.87;16.13;;;11.90;99.90;;;;;;4995233;28;20266;-85
2021/11/12 00:14:23;;;;;;;31.47;13.80;;;11.80;99.90;;;;;;4994750;28;20274;-85
2021/11/12 00:16:49;;;;;;;31.93;14.73;;;11.80;99.90;;;;;;4980290;28;20688;-86
2021/11/12 00:19:15;;;;;;;31.67;16.23;;;11.80;99.90;;;;;;4992816;28;20310;-85
2021/11/12 00:21:43;;;;;;;30.90;14.17;;;11.70;99.90;;;;;;4978686;28;20282;-84
2021/11/12 00:24:08;;;;;;;25.17;13.87;;;11.70;99.90;;;;;;4995106;28;20223;-84
2021/11/12 00:26:35;;;;;;;29.27;13.73;;;11.70;99.90;;;;;;4995402;28;20294;-84
2021/11/12 00:29:02;;;;;;;28.57;14.43;;;11.70;99.90;;;;;;4994748;28;20311;-85
2021/11/12 00:32:02;;;;;;;28.83;15.70;;;11.70;99.90;;;;;;4986089;28;20583;-85
2021/11/12 00:35:34;;;;;;;30.83;13.20;;;11.70;99.90;;;;;;4995235;28;20226;-85
2021/11/12 00:37:48;;;;;;;24.60;11.90;;;11.70;99.90;;;;;;4983922;28;20219;-85
2021/11/12 00:40:20;;;;;;;25.93;13.57;;;11.70;99.90;;;;;;4991500;28;20247;-84
2021/11/12 00:45:21;;;;;;;40.13;17.03;;;11.70;99.90;;;;;;4993501;28;20219;-85
2021/11/12 00:47:53;;;;;;;24.30;15.73;;;11.70;99.90;;;;;;4995652;28;20778;-83
2021/11/12 00:55:18;;;;;;;38.90;13.07;;;11.70;99.90;;;;;;4992917;28;20228;-85
2021/11/12 00:57:45;;;;;;;32.50;16.33;;;11.70;99.90;;;;;;4995579;28;20575;-85
2021/11/12 01:00:12;;;;;;;24.70;11.63;;;11.70;99.90;;;;;;4996351;28;20188;-84
2021/11/12 01:02:39;;;;;;;33.20;16.77;;;11.70;99.90;;;;;;4992983;28;20204;-85
2021/11/12 01:05:07;;;;;;;33.00;15.73;;;11.70;99.90;;;;;;4993837;28;20633;-85
2021/11/12 01:07:35;;;;;;;21.10;13.87;;;11.70;99.90;;;;;;4996036;28;20932;-85
2021/11/12 01:10:03;;;;;;;28.27;13.97;;;11.70;99.90;;;;;;4977140;28;20315;-84
2021/11/12 01:12:31;;;;;;;31.57;14.10;;;11.70;99.90;;;;;;4995741;28;20214;-85
2021/11/12 01:14:57;;;;;;;28.20;14.13;;;11.60;99.90;;;;;;4993265;28;20230;-85
2021/11/12 01:17:24;;;;;;;28.10;14.40;;;11.70;99.90;;;;;;4977208;28;20219;-84
2021/11/12 01:19:51;;;;;;;31.37;12.87;;;11.70;99.90;;;;;;4992799;28;20220;-83
2021/11/12 01:22:17;;;;;;;29.13;13.53;;;11.70;99.90;;;;;;4993121;28;20224;-83
2021/11/12 01:24:44;;;;;;;26.23;14.53;;;11.60;99.90;;;;;;4994466;28;20706;-84
2021/11/12 01:27:10;;;;;;;23.90;11.50;;;11.70;99.90;;;;;;4996679;28;20179;-84
2021/11/12 01:29:37;;;;;;;34.03;14.77;;;11.60;99.90;;;;;;4993994;28;20231;-84
2021/11/12 01:32:21;;;;;;;23.77;13.17;;;11.70;99.90;;;;;;5008773;28;20216;-84
2021/11/12 01:34:49;;;;;;;26.63;13.03;;;11.60;99.90;;;;;;4993949;28;20214;-85
2021/11/12 01:37:19;;;;;;;29.33;15.33;;;11.60;99.90;;;;;;4994904;28;20294;-84
2021/11/12 01:40:00;;;;;;;25.33;13.47;;;11.60;99.90;;;;;;4991496;28;20195;-82
2021/11/12 01:43:04;;;;;;;28.73;15.27;;;11.60;99.90;;;;;;4995081;28;20191;-84
2021/11/12 01:45:42;;;;;;;34.10;13.80;;;11.60;99.90;;;;;;4994451;28;20279;-83
2021/11/12 01:51:10;;;;;;;29.20;15.40;;;11.50;99.90;;;;;;4996597;28;20214;-84
2021/11/12 01:53:40;;;;;;;21.57;13.07;;;11.50;99.90;;;;;;4996964;28;20297;-84
2021/11/12 02:01:19;;;;;;;22.10;15.83;;;11.50;99.90;;;;;;4994848;28;20229;-84
2021/11/12 02:03:45;;;;;;;28.40;15.67;;;11.50;99.90;;;;;;4999847;28;20239;-84
2021/11/12 02:06:18;;;;;;;28.30;15.13;;;11.40;99.90;;;;;;4997361;28;20192;-85
2021/11/12 02:08:45;;;;;;;33.33;15.43;;;11.40;99.90;;;;;;4999708;28;20230;-82
2021/11/12 02:11:12;;;;;;;34.07;15.00;;;11.40;99.90;;;;;;4999440;28;20223;-84
2021/11/12 02:13:39;;;;;;;23.83;12.80;;;11.50;99.90;;;;;;4996144;28;20231;-82
2021/11/12 02:16:06;;;;;;;26.90;16.30;;;11.50;99.90;;;;;;4996514;28;20225;-83
2021/11/12 02:18:36;;;;;;;33.30;17.20;;;11.50;99.90;;;;;;5015197;28;20243;-82
2021/11/12 02:21:11;;;;;;;24.83;15.33;;;11.40;99.90;;;;;;4992773;28;20250;-84
2021/11/12 02:23:47;;;;;;;25.40;13.53;;;11.40;99.90;;;;;;4977229;28;20234;-83
2021/11/12 02:26:19;;;;;;;26.13;16.03;;;11.40;99.90;;;;;;4996106;28;20689;-82
2021/11/12 02:28:47;;;;;;;28.43;14.50;;;11.40;99.90;;;;;;4994218;28;20618;-82
2021/11/12 02:31:15;;;;;;;25.87;14.20;;;11.40;99.90;;;;;;4979374;28;20761;-82
2021/11/12 02:33:41;;;;;;;27.60;13.77;;;11.40;99.90;;;;;;4994163;28;20194;-84
2021/11/12 02:36:13;;;;;;;24.23;13.10;;;11.40;99.90;;;;;;4998516;28;20223;-84
2021/11/12 02:38:43;;;;;;;24.97;16.50;;;11.40;99.90;;;;;;4996462;28;20219;-83
2021/11/12 02:41:09;;;;;;;31.00;14.63;;;11.40;99.90;;;;;;5009886;28;20243;-84
2021/11/12 02:43:36;;;;;;;20.57;14.47;;;11.30;99.90;;;;;;4995399;28;21206;-84
2021/11/12 02:46:04;;;;;;;27.63;14.33;;;11.40;99.90;;;;;;4996548;28;20333;-83
2021/11/12 02:48:36;;;;;;;24.17;13.40;;;11.30;99.90;;;;;;4997565;28;20191;-84
2021/11/12 02:51:05;;;;;;;26.57;15.87;;;11.30;99.90;;;;;;4995396;28;20696;-85
2021/11/12 02:53:30;;;;;;;34.77;14.07;;;11.30;99.90;;;;;;4996102;28;20223;-83
2021/11/12 02:56:01;;;;;;;24.87;16.17;;;11.30;99.90;;;;;;4995703;28;20579;-83
2021/11/12 02:58:27;;;;;;;23.77;14.47;;;11.30;99.90;;;;;;4963022;28;20226;-84
2021/11/12 03:00:54;;;;;;;41.27;15.27;;;11.30;99.90;;;;;;4979372;28;20192;-84
2021/11/12 03:03:21;;;;;;;31.43;14.57;;;11.30;99.90;;;;;;4998040;28;20241;-83
2021/11/12 03:05:46;;;;;;;30.07;15.47;;;11.30;99.90;;;;;;4997514;28;20234;-82
2021/11/12 03:08:12;;;;;;;26.67;16.00;;;11.30;99.90;;;;;;4997725;28;20227;-81
2021/11/12 03:10:38;;;;;;;21.10;13.80;;;11.30;99.90;;;;;;4996591;28;20286;-85
2021/11/12 03:13:05;;;;;;;37.30;14.03;;;11.30;99.90;;;;;;4995431;28;20306;-83
2021/11/12 03:15:31;;;;;;;17.27;11.67;;;11.30;99.90;;;;;;4996759;28;20603;-84
2021/11/12 03:17:58;;;;;;;27.40;13.37;;;11.30;99.90;;;;;;4995160;28;20586;-83
2021/11/12 03:20:25;;;;;;;19.63;13.73;;;11.20;99.90;;;;;;4995497;28;20313;-82
2021/11/12 03:22:58;;;;;;;25.57;15.37;;;11.20;99.90;;;;;;4994719;28;21076;-83
2021/11/12 05:46:40;;;;;;;13.93;8.37;;;10.60;99.90;;;;;;4989039;28;20719;-82
2021/11/12 05:57:12;;;;;;;15.80;9.63;;;10.70;99.90;;;;;;4995609;28;20223;-84
2021/11/12 05:59:38;;;;;;;15.87;12.00;;;10.70;99.90;;;;;;5006677;28;20231;-84
2021/11/12 06:02:05;;;;;;;19.93;12.80;;;10.70;99.90;;;;;;4993884;28;20220;-84
2021/11/12 06:04:31;;;;;;;17.20;8.87;;;10.70;99.90;;;;;;4978555;28;20231;-84
2021/11/12 06:06:57;;;;;;;17.00;11.07;;;10.70;99.90;;;;;;4994242;28;20223;-85
2021/11/12 06:09:23;;;;;;;16.40;10.77;;;10.70;99.90;;;;;;4992423;28;20302;-84
2021/11/12 06:11:56;;;;;;;16.97;10.70;;;10.70;99.90;;;;;;4995467;28;20283;-83
2021/11/12 06:14:23;;;;;;;15.30;10.30;;;10.70;99.90;;;;;;4990765;28;20290;-83
2021/11/12 06:16:50;;;;;;;20.60;11.40;;;10.60;99.90;;;;;;4991218;28;20231;-83
2021/11/12 06:19:16;;;;;;;18.00;12.33;;;10.60;99.90;;;;;;4990445;28;20333;-84
2021/11/12 06:21:43;;;;;;;17.83;11.50;;;10.60;99.90;;;;;;4992145;28;20210;-85
2021/11/12 06:24:10;;;;;;;14.67;10.97;;;10.50;99.90;;;;;;4987991;28;20266;-82
2021/11/12 06:26:37;;;;;;;18.10;11.07;;;10.50;99.90;;;;;;4991310;28;20305;-84
2021/11/12 06:29:03;;;;;;;18.83;11.00;;;10.50;99.90;;;;;;4990967;28;20220;-84
2021/11/12 06:31:28;;;;;;;19.20;10.37;;;10.50;99.90;;;;;;4988946;28;20212;-85
2021/11/12 06:33:54;;;;;;;18.67;10.13;;;10.50;99.90;;;;;;4992716;28;20271;-85
2021/11/12 06:36:23;;;;;;;17.07;8.83;;;10.50;99.90;;;;;;4993930;28;20192;-85
2021/11/12 06:38:49;;;;;;;14.83;9.70;;;10.50;99.90;;;;;;4978545;28;20228;-83
2021/11/12 06:41:26;;;;;;;24.70;12.67;;;10.40;99.90;;;;;;4991293;28;20318;-83
2021/11/12 06:44:08;;;;;;;18.90;10.57;;;10.40;99.90;;;;;;4992258;28;20226;-83
2021/11/12 06:51:44;;;;;;;15.87;8.90;;;10.40;99.90;;;;;;4996144;28;20206;-84
2021/11/12 06:54:09;;;;;;;17.77;10.97;;;10.40;99.90;;;;;;4978532;28;20694;-86
2021/11/12 06:56:35;;;;;;;13.17;10.13;;;10.40;99.90;;;;;;4980704;28;20693;-86
2021/11/12 06:59:02;;;;;;;17.97;10.97;;;10.40;99.90;;;;;;4997733;28;20220;-82
2021/11/12 07:01:30;;;;;;;16.07;11.17;;;10.40;99.90;;;;;;4995431;28;20265;-85
2021/11/12 07:03:57;;;;;;;17.43;10.93;;;10.40;99.90;;;;;;4997798;28;20238;-83
2021/11/12 07:06:23;;;;;;;12.37;8.20;;;10.40;99.90;;;;;;4996475;28;20561;-84
2021/11/12 07:08:49;;;;;;;20.77;11.53;;;10.50;99.90;;;;;;4996442;28;20311;-87
2021/11/12 07:11:15;;;;;;;18.97;12.13;;;10.40;99.90;;;;;;4981460;28;20274;-85
2021/11/12 07:13:41;;;;;;;16.97;9.47;;;10.40;99.90;;;;;;4996996;28;20220;-83
2021/11/12 07:16:06;;;;;;;19.17;11.20;;;10.50;99.90;;;;;;5001497;28;20218;-84
2021/11/12 07:18:32;;;;;;;19.53;11.40;;;10.50;99.90;;;;;;4992595;28;20200;-82
2021/11/12 07:20:58;;;;;;;17.17;10.30;;;10.50;99.90;;;;;;4989733;28;20297;-82
2021/11/12 07:23:26;;;;;;;14.87;9.93;;;10.50;99.90;;;;;;4989723;28;20755;-81
2021/11/12 07:25:54;;;;;;;16.50;9.33;;;10.50;99.90;;;;;;4992218;28;20215;-81
2021/11/12 07:28:23;;;;;;;18.20;9.87;;;10.40;99.90;;;;;;4991689;28;20225;-80
2021/11/12 07:30:49;;;;;;;18.80;11.60;;;10.50;99.90;;;;;;4989610;28;20221;-81
2021/11/12 07:33:15;;;;;;;15.63;10.93;;;10.50;99.90;;;;;;4976261;28;20237;-83
2021/11/12 07:38:45;;;;;;;15.13;7.43;;;10.40;99.90;;;;;;4993517;28;20235;-82
2021/11/12 07:41:21;;;;;;;17.20;12.03;;;10.40;99.90;;;;;;4993154;28;20235;-83
2021/11/12 07:48:59;;;;;;;22.97;11.67;;;10.40;99.90;;;;;;4997258;28;20231;-81
2021/11/12 07:51:25;;;;;;;25.23;10.90;;;10.50;99.90;;;;;;4993753;28;20202;-81
2021/11/12 07:53:51;;;;;;;20.57;11.50;;;10.50;99.90;;;;;;4990823;28;20227;-83
2021/11/12 07:56:17;;;;;;;19.93;11.00;;;10.40;99.90;;;;;;4994816;28;20723;-81
2021/11/12 07:58:44;;;;;;;25.73;11.50;;;10.40;99.90;;;;;;4997999;28;20289;-83
2021/11/12 08:01:10;;;;;;;16.57;11.50;;;10.40;99.90;;;;;;5011467;28;20248;-83
2021/11/12 08:03:36;;;;;;;24.00;11.30;;;10.40;99.90;;;;;;4994424;28;20228;-81
2021/11/12 08:06:04;;;;;;;32.27;14.07;;;10.30;99.90;;;;;;4996077;28;20238;-83
2021/11/12 08:08:33;;;;;;;25.63;15.00;;;10.30;99.90;;;;;;4993563;28;20224;-83
2021/11/12 08:11:09;;;;;;;18.37;9.70;;;10.30;99.90;;;;;;4990418;28;20223;-82
2021/11/12 08:13:39;;;;;;;18.10;11.97;;;10.20;99.90;;;;;;4992525;28;20214;-83
2021/11/12 08:19:02;;;;;;;11.27;10.07;;;10.20;99.90;;;;;;4988760;28;20203;-83
2021/11/12 08:21:37;;;;;;;13.77;9.40;;;10.10;99.90;;;;;;4976217;28;20241;-83
2021/11/12 08:24:19;;;;;;;20.97;11.93;;;10.20;99.90;;;;;;4992199;28;20325;-83
2021/11/12 08:29:31;;;;;;;12.50;9.83;;;10.20;99.90;;;;;;4988886;28;20220;-81
2021/11/12 08:43:10;;;;;;;18.23;12.40;;;10.70;99.90;;;;;;4993435;28;20216;-81
2021/11/12 08:45:40;;;;;;;18.00;10.73;;;10.60;99.90;;;;;;4995382;28;20222;-81
2021/11/12 08:48:12;;;;;;;15.37;10.10;;;10.40;99.90;;;;;;4993809;28;20199;-83
2021/11/12 08:50:38;;;;;;;13.33;10.23;;;10.30;99.90;;;;;;4996239;28;20233;-82
2021/11/12 08:53:10;;;;;;;15.17;8.70;;;10.40;99.90;;;;;;4991809;28;20622;-83
2021/11/12 08:55:38;;;;;;;15.07;8.27;;;10.40;99.90;;;;;;4993551;28;20314;-83
2021/11/12 08:58:06;;;;;;;11.57;7.43;;;10.30;99.90;;;;;;4992280;28;20230;-81
2021/11/12 09:00:34;;;;;;;9.73;8.57;;;10.10;99.90;;;;;;4994139;28;20223;-81
2021/11/12 09:03:01;;;;;;;7.47;6.10;;;10.10;99.90;;;;;;4993142;28;20341;-82
2021/11/12 09:05:27;;;;;;;11.03;9.13;;;10.00;99.90;;;;;;4989820;28;20238;-82
2021/11/12 09:07:53;;;;;;;14.70;9.87;;;10.00;99.90;;;;;;4986619;28;20242;-82
2021/11/12 09:10:25;;;;;;;14.10;7.17;;;10.20;99.90;;;;;;4994780;28;20228;-82
2021/11/12 09:12:57;;;;;;;12.83;9.77;;;10.20;99.90;;;;;;4991463;28;20187;-81
2021/11/12 09:15:31;;;;;;;8.33;7.37;;;10.10;99.90;;;;;;4992400;28;20684;-81
2021/11/12 09:18:00;;;;;;;10.63;8.33;;;10.00;99.90;;;;;;4993914;28;20222;-82
2021/11/12 09:20:26;;;;;;;10.77;7.20;;;10.00;99.90;;;;;;4994466;28;20227;-83
2021/11/12 09:22:54;;;;;;;8.70;7.47;;;10.00;99.90;;;;;;4995223;28;20222;-84
2021/11/12 09:25:22;;;;;;;13.30;9.87;;;10.10;99.90;;;;;;4995250;28;20238;-82
2021/11/12 09:27:48;;;;;;;8.47;5.87;;;9.80;99.90;;;;;;4993845;28;20188;-83
2021/11/12 09:30:21;;;;;;;12.60;9.60;;;9.70;99.90;;;;;;4992461;28;20230;-83
2021/11/12 09:32:47;;;;;;;12.07;7.23;;;9.70;99.90;;;;;;4993335;28;20302;-85
2021/11/12 09:35:13;;;;;;;11.53;7.53;;;9.80;99.90;;;;;;4993010;28;20235;-83
2021/11/12 09:37:39;;;;;;;9.33;6.50;;;9.90;99.90;;;;;;4994441;28;20216;-83
2021/11/12 09:40:06;;;;;;;8.03;5.23;;;10.00;99.90;;;;;;4976259;28;20269;-82
2021/11/12 09:42:34;;;;;;;11.20;6.40;;;9.90;99.90;;;;;;4995050;28;20195;-83
2021/11/12 09:45:01;;;;;;;8.30;5.63;;;9.80;99.90;;;;;;4994930;28;20317;-84
2021/11/12 09:47:27;;;;;;;8.23;4.80;;;9.90;99.90;;;;;;4994022;28;20222;-82
2021/11/12 09:49:56;;;;;;;8.10;6.40;;;10.00;99.90;;;;;;4992557;28;20290;-84
2021/11/12 09:52:25;;;;;;;11.93;6.17;;;10.00;99.90;;;;;;4992545;28;20224;-85
2021/11/12 09:54:51;;;;;;;12.80;6.80;;;10.10;99.90;;;;;;4992184;28;20187;-84
2021/11/12 09:57:18;;;;;;;9.53;6.10;;;10.20;99.90;;;;;;4994115;28;20199;-83
2021/11/12 09:59:50;;;;;;;12.53;7.80;;;10.10;99.90;;;;;;4994116;28;20223;-85
2021/11/12 10:02:17;;;;;;;11.93;8.60;;;10.10;99.90;;;;;;4986403;28;20211;-86
2021/11/12 10:04:44;;;;;;;8.83;6.30;;;10.10;99.90;;;;;;4993991;28;20239;-84
2021/11/12 10:07:15;;;;;;;8.87;7.23;;;10.10;99.90;;;;;;4993449;28;20238;-84
2021/11/12 10:09:48;;;;;;;11.90;7.87;;;10.10;99.90;;;;;;4994432;28;20223;-85
2021/11/12 10:12:14;;;;;;;10.50;7.60;;;10.10;99.90;;;;;;4996334;28;20188;-87
2021/11/12 10:14:57;;;;;;;12.47;8.90;;;10.00;99.90;;;;;;4997803;28;21077;-86
2021/11/12 10:17:26;;;;;;;14.10;7.87;;;9.90;99.90;;;;;;4998842;28;20222;-87
2021/11/12 10:19:54;;;;;;;9.30;7.37;;;10.00;99.90;;;;;;5002796;28;20203;-86
2021/11/12 10:22:27;;;;;;;10.23;5.93;;;9.90;99.90;;;;;;5012279;28;20238;-85
2021/11/12 10:24:55;;;;;;;7.57;6.37;;;9.80;99.90;;;;;;4997812;28;20294;-87
2021/11/12 10:27:24;;;;;;;11.83;7.13;;;9.60;99.90;;;;;;4999200;28;20195;-86
2021/11/12 10:29:56;;;;;;;12.93;7.90;;;9.30;99.90;;;;;;4996297;28;20216;-85
2021/11/12 10:32:25;;;;;;;15.00;8.83;;;9.40;99.90;;;;;;4996896;28;20600;-87
2021/11/12 10:34:54;;;;;;;11.53;6.50;;;9.50;99.90;;;;;;4998025;28;20269;-86
2021/11/12 10:37:21;;;;;;;12.33;9.17;;;9.60;99.90;;;;;;4997693;28;20251;-86
2021/11/12 10:39:57;;;;;;;15.33;7.57;;;9.60;99.90;;;;;;4996657;28;20196;-86
2021/11/12 10:42:35;;;;;;;16.27;9.97;;;9.80;99.90;;;;;;4994917;28;20191;-84
2021/11/12 10:45:07;;;;;;;21.37;9.40;;;9.90;99.90;;;;;;4994405;28;20277;-85
2021/11/12 10:47:37;;;;;;;15.10;8.60;;;9.80;99.90;;;;;;4995644;28;20273;-83
2021/11/12 10:50:04;;;;;;;10.83;9.07;;;9.80;99.90;;;;;;4996863;28;20212;-86
2021/11/12 10:52:31;;;;;;;13.87;9.07;;;9.80;99.90;;;;;;4995563;28;20238;-83
2021/11/12 10:55:12;;;;;;;12.73;9.10;;;9.80;99.90;;;;;;4996050;28;20711;-83
2021/11/12 10:57:40;;;;;;;19.07;11.00;;;9.90;99.90;;;;;;4996282;28;20302;-83
2021/11/12 11:00:27;;;;;;;11.83;10.63;;;9.90;99.90;;;;;;4999242;28;20192;-87
2021/11/12 11:02:55;;;;;;;13.53;9.67;;;10.00;99.90;;;;;;4996060;28;20227;-86
2021/11/12 11:05:30;;;;;;;12.80;9.20;;;9.90;99.90;;;;;;5011795;28;20604;-86
2021/11/12 11:07:58;;;;;;;13.57;9.83;;;10.00;99.90;;;;;;4995453;28;20234;-86
2021/11/12 11:10:29;;;;;;;14.27;9.03;;;9.90;99.90;;;;;;4997113;28;20219;-85
2021/11/12 11:13:11;;;;;;;13.73;8.70;;;9.90;99.90;;;;;;4995058;28;20692;-84
2021/11/12 11:15:45;;;;;;;13.10;8.60;;;9.80;99.90;;;;;;4997792;28;20202;-84
2021/11/12 11:18:21;;;;;;;12.30;8.33;;;9.90;99.90;;;;;;4996964;28;20191;-85
2021/11/12 11:23:46;;;;;;;16.27;9.97;;;9.70;99.90;;;;;;4996787;28;20242;-84
2021/11/12 11:26:15;;;;;;;16.83;10.00;;;9.80;99.90;;;;;;4999398;28;20243;-84
2021/11/12 11:28:40;;;;;;;15.77;10.60;;;9.90;99.90;;;;;;4995840;28;20215;-85
2021/11/12 11:31:11;;;;;;;15.43;9.67;;;9.80;99.90;;;;;;4992259;28;20534;-84
2021/11/12 11:33:38;;;;;;;18.00;10.10;;;9.90;99.90;;;;;;4989498;28;20192;-84
2021/11/12 11:36:05;;;;;;;12.50;9.67;;;9.90;99.90;;;;;;4991607;28;20283;-85
2021/11/12 11:38:34;;;;;;;15.50;9.80;;;9.90;99.90;;;;;;4995389;28;20760;-84
2021/11/12 11:41:02;;;;;;;12.73;8.03;;;9.90;99.90;;;;;;4994989;28;20224;-85
2021/11/12 11:43:29;;;;;;;14.93;9.63;;;9.80;99.90;;;;;;4996383;28;20300;-85
2021/11/12 11:45:59;;;;;;;16.17;10.33;;;9.80;99.90;;;;;;4997807;28;20232;-85
2021/11/12 11:48:25;;;;;;;11.13;7.73;;;9.80;99.90;;;;;;4997387;28;20180;-84
2021/11/12 11:50:54;;;;;;;15.43;9.33;;;9.80;99.90;;;;;;4997067;28;20306;-84
2021/11/12 11:53:30;;;;;;;16.13;9.80;;;9.80;99.90;;;;;;4993666;28;20223;-84
2021/11/12 11:56:26;;;;;;;10.80;7.17;;;9.90;99.90;;;;;;4994994;28;20642;-84
2021/11/12 11:59:07;;;;;;;16.67;9.30;;;9.80;99.90;;;;;;4998410;28;20314;-82
2021/11/12 12:01:36;;;;;;;12.53;7.97;;;9.80;99.90;;;;;;4987762;28;20262;-82
2021/11/12 12:04:08;;;;;;;13.27;9.57;;;9.80;99.90;;;;;;4994880;28;20246;-83
2021/11/12 12:06:41;;;;;;;16.03;8.83;;;9.80;99.90;;;;;;5012854;28;20232;-85
2021/11/12 12:09:10;;;;;;;12.50;9.63;;;9.80;99.90;;;;;;4994769;28;20232;-85
2021/11/12 12:11:52;;;;;;;12.50;8.17;;;9.80;99.90;;;;;;4993612;28;20216;-84
2021/11/12 12:14:31;;;;;;;11.50;6.03;;;9.80;99.90;;;;;;4995734;28;20226;-82
2021/11/12 12:17:02;;;;;;;10.93;7.57;;;9.70;99.90;;;;;;4995965;28;20227;-84
2021/11/12 12:19:43;;;;;;;9.00;5.53;;;9.70;99.90;;;;;;4993793;28;20231;-84
2021/11/12 12:34:41;;;;;;;13.23;7.00;;;9.70;99.90;;;;;;4994267;28;20234;-86
2021/11/12 13:25:39;;;;;;;14.27;9.33;;;9.50;99.90;;;;;;4994515;28;20220;-85
2021/11/12 13:28:14;;;;;;;7.83;6.40;;;9.50;99.90;;;;;;4994330;28;20230;-85
2021/11/12 13:30:45;;;;;;;11.77;6.93;;;9.50;99.90;;;;;;5000423;28;20694;-85
2021/11/12 13:33:43;;;;;;;12.03;8.30;;;9.50;99.90;;;;;;4992568;28;20983;-85
2021/11/12 13:36:23;;;;;;;17.30;8.00;;;9.50;99.90;;;;;;4939272;28;20231;-83
2021/11/12 13:39:01;;;;;;;20.93;8.60;;;9.50;99.90;;;;;;4989003;28;20672;-84
2021/11/12 13:41:40;;;;;;;11.70;8.23;;;9.40;99.90;;;;;;5009384;28;20743;-85
2021/11/12 13:44:10;;;;;;;9.63;6.87;;;9.40;99.90;;;;;;4993163;28;20253;-85
2021/11/12 13:46:53;;;;;;;14.80;7.40;;;9.40;99.90;;;;;;4996329;28;20288;-83
2021/11/12 13:49:36;;;;;;;15.13;8.10;;;9.40;99.90;;;;;;4997291;28;20231;-83
2021/11/12 13:52:11;;;;;;;8.70;6.93;;;9.40;99.90;;;;;;4998019;28;20578;-84
2021/11/12 13:54:50;;;;;;;10.97;5.70;;;9.30;99.90;;;;;;5000007;28;20188;-85
2021/11/12 13:57:17;;;;;;;11.87;8.97;;;9.30;99.90;;;;;;4998187;28;20823;-85
2021/11/12 13:59:54;;;;;;;13.20;7.93;;;9.30;99.90;;;;;;4995797;28;20314;-85
2021/11/12 14:02:21;;;;;;;12.67;6.93;;;9.30;99.90;;;;;;4996371;28;21713;-85
2021/11/12 14:04:47;;;;;;;10.57;7.00;;;9.30;99.90;;;;;;5004036;28;20589;-85
2021/11/12 14:07:18;;;;;;;14.40;7.57;;;9.20;99.90;;;;;;4979889;28;20278;-85
2021/11/12 14:09:44;;;;;;;15.53;6.93;;;9.20;99.90;;;;;;4991894;28;20192;-85
2021/11/12 14:12:12;;;;;;;8.50;6.13;;;9.20;99.90;;;;;;4997721;28;20542;-85
2021/11/12 14:14:42;;;;;;;10.27;6.43;;;9.20;99.90;;;;;;4993801;28;20270;-82
2021/11/12 14:17:18;;;;;;;12.30;7.47;;;9.10;99.90;;;;;;4994040;28;20223;-84
2021/11/12 14:22:46;;;;;;;9.30;5.77;;;9.00;99.90;;;;;;4996647;28;20227;-83
2021/11/12 14:33:44;;;;;;;11.07;7.47;;;8.90;99.90;;;;;;4997037;28;20200;-84
2021/11/12 14:36:30;;;;;;;9.93;6.40;;;8.80;99.90;;;;;;4981458;28;20266;-85
2021/11/12 14:39:21;;;;;;;11.03;6.93;;;8.70;99.90;;;;;;4998164;28;20223;-86
2021/11/12 14:42:18;;;;;;;7.47;6.27;;;8.70;99.90;;;;;;4994590;28;20285;-84
2021/11/12 14:48:07;;;;;;;11.30;7.10;;;8.60;99.90;;;;;;4996703;28;20223;-82
2021/11/12 14:53:26;;;;;;;22.47;8.57;;;8.50;99.90;;;;;;4995558;28;20225;-84
2021/11/12 14:56:19;;;;;;;14.60;8.33;;;8.50;99.90;;;;;;4997798;28;20226;-83
2021/11/12 14:59:01;;;;;;;16.40;9.53;;;8.50;99.90;;;;;;4994441;28;20231;-84
2021/11/12 15:01:30;;;;;;;11.87;7.30;;;8.50;99.90;;;;;;4995698;28;20257;-84
2021/11/12 15:03:56;;;;;;;16.73;8.87;;;8.50;99.90;;;;;;4997658;28;20239;-82
2021/11/12 15:06:25;;;;;;;19.63;11.20;;;8.50;99.90;;;;;;5006442;28;20441;-85
2021/11/12 15:08:55;;;;;;;19.13;9.77;;;8.50;99.90;;;;;;5008070;28;20215;-83
2021/11/12 15:11:25;;;;;;;17.70;9.47;;;8.50;99.90;;;;;;4997028;28;20226;-86
2021/11/12 15:13:53;;;;;;;17.00;9.83;;;8.60;99.90;;;;;;4993813;28;20219;-86
2021/11/12 15:16:22;;;;;;;15.80;10.23;;;8.60;99.90;;;;;;4997074;28;20228;-86
2021/11/12 15:18:51;;;;;;;13.97;7.53;;;8.60;99.90;;;;;;4995316;28;20289;-85
2021/11/12 15:24:26;;;;;;;9.97;7.43;;;8.60;99.90;;;;;;4943548;28;20811;-86
2021/11/12 15:29:40;;;;;;;14.10;8.53;;;8.60;99.90;;;;;;4995924;28;20243;-88
2021/11/12 15:34:48;;;;;;;15.83;7.57;;;8.60;99.90;;;;;;5003785;28;20224;-85
2021/11/12 15:40:05;;;;;;;19.37;9.93;;;8.50;99.90;;;;;;4998308;28;20226;-84
2021/11/12 15:45:10;;;;;;;19.50;11.47;;;8.50;99.90;;;;;;4996888;28;20619;-88
2021/11/12 15:47:46;;;;;;;18.90;12.23;;;8.50;99.90;;;;;;4994790;28;20266;-88
2021/11/12 16:06:33;;;;;;;13.63;8.27;;;8.40;99.90;;;;;;4995490;28;20263;-87
2021/11/12 16:08:55;;;;;;;11.57;7.60;;;8.40;99.90;;;;;;4995111;28;20997;-88
2021/11/12 16:11:32;;;;;;;17.63;8.70;;;8.40;99.90;;;;;;4980722;28;20251;-88
2021/11/12 16:19:21;;;;;;;17.23;7.90;;;8.40;99.90;;;;;;4996582;28;20219;-83
2021/11/12 16:26:50;;;;;;;12.90;7.37;;;8.50;99.90;;;;;;4994370;28;20219;-87
2021/11/12 16:31:43;;;;;;;16.63;9.57;;;8.50;99.90;;;;;;4994307;28;20477;-87
2021/11/12 16:34:15;;;;;;;14.80;9.30;;;8.50;99.90;;;;;;4996165;28;20219;-86
2021/11/12 16:36:45;;;;;;;21.17;11.40;;;8.50;99.90;;;;;;4979367;28;20588;-86
2021/11/12 16:39:14;;;;;;;13.13;9.13;;;8.50;99.90;;;;;;4996279;28;20191;-88
2021/11/12 16:41:51;;;;;;;16.77;9.70;;;8.50;99.90;;;;;;4990919;28;20309;-89
2021/11/12 16:44:29;;;;;;;12.20;7.50;;;8.50;99.90;;;;;;4994087;28;20288;-87
2021/11/12 16:47:10;;;;;;;12.77;8.83;;;8.50;99.90;;;;;;4980342;28;20277;-90
2021/11/12 16:54:59;;;;;;;14.47;6.47;;;8.50;99.90;;;;;;4994565;28;20187;-87
2021/11/12 16:57:47;;;;;;;8.10;7.27;;;8.50;99.90;;;;;;4994395;28;20199;-87
2021/11/12 17:03:18;;;;;;;12.37;8.97;;;8.50;99.90;;;;;;4996495;28;20229;-87
2021/11/12 17:13:49;;;;;;;10.93;7.00;;;8.50;99.90;;;;;;4993032;28;20216;-91
2021/11/12 17:16:34;;;;;;;9.87;5.97;;;8.50;99.90;;;;;;4993668;28;20230;-89
2021/11/12 17:22:13;;;;;;;16.60;8.30;;;8.50;99.90;;;;;;4995307;28;20195;-88
2021/11/12 17:48:48;;;;;;;12.43;9.93;;;8.50;99.90;;;;;;4993583;28;20250;-87
2021/11/12 18:02:33;;;;;;;14.73;9.63;;;8.40;99.90;;;;;;4993633;28;20680;-90
2021/11/12 18:05:22;;;;;;;12.13;8.77;;;8.40;99.90;;;;;;4992464;28;20326;-87
2021/11/12 18:08:09;;;;;;;14.43;7.73;;;8.40;99.90;;;;;;4993984;28;20223;-87
2021/11/12 21:46:59;;;;;;;12.40;6.37;;;9.90;99.90;;;;;;4995049;28;20729;-91
2021/11/12 21:49:26;;;;;;;14.07;6.30;;;9.90;99.90;;;;;;4995788;28;20228;-88
2021/11/12 21:51:55;;;;;;;13.37;8.53;;;9.90;99.90;;;;;;4995154;28;20195;-92
2021/11/12 21:54:20;;;;;;;11.93;6.37;;;9.90;99.90;;;;;;4994139;28;20580;-92
2021/11/12 21:56:46;;;;;;;13.23;8.10;;;9.90;99.90;;;;;;4988932;28;20216;-90
2021/11/12 21:59:12;;;;;;;8.70;5.60;;;9.90;99.90;;;;;;4994431;28;20354;-88
2021/11/12 22:01:39;;;;;;;21.73;9.23;;;9.90;99.90;;;;;;4991951;28;20232;-89
2021/11/12 22:04:06;;;;;;;9.27;6.80;;;9.90;99.90;;;;;;4991460;28;20278;-88
2021/11/12 22:06:34;;;;;;;13.23;7.93;;;9.90;99.90;;;;;;4996932;28;20192;-90
2021/11/12 22:09:01;;;;;;;10.47;7.27;;;9.90;99.90;;;;;;4999125;28;20211;-92
2021/11/12 22:11:27;;;;;;;12.40;7.83;;;9.90;99.90;;;;;;5006213;28;20313;-89
2021/11/12 22:13:53;;;;;;;11.93;7.50;;;9.90;99.90;;;;;;4998435;28;20245;-92
2021/11/12 22:16:21;;;;;;;16.87;9.30;;;9.90;99.90;;;;;;4997058;28;20252;-94
2021/11/12 22:18:48;;;;;;;11.13;8.40;;;9.90;99.90;;;;;;4998860;28;20189;-89
2021/11/12 22:21:15;;;;;;;10.47;6.73;;;9.90;99.90;;;;;;4997874;28;20196;-90
2021/11/12 22:23:41;;;;;;;10.37;7.33;;;9.90;99.90;;;;;;4997263;28;20211;-92
2021/11/12 22:26:07;;;;;;;12.60;7.13;;;9.90;99.90;;;;;;4980037;28;20239;-89
2021/11/12 22:28:34;;;;;;;15.70;6.70;;;9.90;99.90;;;;;;4997308;28;20227;-90
2021/11/12 22:31:02;;;;;;;18.63;8.60;;;10.00;99.90;;;;;;4996496;28;20303;-92
2021/11/12 22:33:29;;;;;;;12.27;8.53;;;9.90;99.90;;;;;;4989700;28;20263;-91
2021/11/12 22:35:56;;;;;;;13.57;8.37;;;10.00;99.90;;;;;;4981746;28;20220;-89
2021/11/12 22:38:22;;;;;;;15.17;7.60;;;10.00;99.90;;;;;;4995512;28;20250;-90
2021/11/12 22:40:51;;;;;;;10.47;7.90;;;10.00;99.90;;;;;;4998481;28;20620;-91
2021/11/12 22:43:17;;;;;;;11.10;7.00;;;10.00;99.90;;;;;;4997384;28;20219;-94
2021/11/12 22:45:43;;;;;;;11.10;8.13;;;10.00;99.90;;;;;;4997308;28;20234;-89
2021/11/12 22:48:09;;;;;;;10.87;6.90;;;10.00;99.90;;;;;;4981617;28;20191;-91
2021/11/12 22:50:37;;;;;;;11.53;8.00;;;10.00;99.90;;;;;;4997120;28;21107;-90
2021/11/12 22:53:05;;;;;;;10.27;7.27;;;10.00;99.90;;;;;;4988444;28;20224;-92
2021/11/12 22:55:31;;;;;;;16.00;8.60;;;10.00;99.90;;;;;;4997318;28;20224;-87